Time;durP1;ratioP1;P1;durP2;ratioP2;P2;SDS_P1;SDS_P2;PMS_P1;PMS_P2;Temp;Humidity;BMP_temperature;BMP_pressure;BME280_temperature;BME280_humidity;BME280_pressure;Samples;Min_cycle;Max_cycle;Signal;HPM_P1;HPM_P2
2021/05/29 00:01:52;;;;;;;6.60;3.57;;;12.70;49.40;;;;;;5075493;28;39582;-81
2021/05/29 00:07:32;;;;;;;4.40;3.83;;;12.60;49.60;;;;;;5108560;28;37976;-83
2021/05/29 00:10:20;;;;;;;4.80;4.33;;;12.60;49.70;;;;;;5107909;28;39558;-81
2021/05/29 00:12:47;;;;;;;4.03;3.27;;;12.50;49.80;;;;;;5084150;28;38338;-82
2021/05/29 00:15:15;;;;;;;4.40;4.00;;;12.50;49.70;;;;;;5081356;28;38346;-81
2021/05/29 00:20:57;;;;;;;4.80;3.57;;;12.40;50.10;;;;;;5100565;28;38940;-82
2021/05/29 00:23:30;;;;;;;4.50;3.87;;;12.40;50.60;;;;;;5104554;28;39840;-82
2021/05/29 00:26:18;;;;;;;4.30;3.90;;;12.40;49.90;;;;;;5103722;28;38428;-83
2021/05/29 00:28:52;;;;;;;4.43;4.00;;;12.40;50.20;;;;;;5108461;28;35936;-82
2021/05/29 00:31:26;;;;;;;4.60;4.00;;;12.40;50.30;;;;;;5086985;28;39443;-80
2021/05/29 00:36:51;;;;;;;6.43;4.33;;;12.40;50.90;;;;;;5104664;28;38537;-82
2021/05/29 00:39:21;;;;;;;4.43;3.87;;;12.40;51.00;;;;;;5089941;28;35984;-82
2021/05/29 00:42:36;;;;;;;5.87;4.67;;;12.40;51.20;;;;;;5109047;28;40175;-82
2021/05/29 00:45:18;;;;;;;5.00;4.13;;;12.30;51.10;;;;;;5104274;28;39152;-81
2021/05/29 00:48:08;;;;;;;4.83;4.17;;;12.40;51.20;;;;;;5096598;28;38252;-81
2021/05/29 00:53:49;;;;;;;4.40;4.00;;;12.40;51.30;;;;;;5026208;28;39912;-82
2021/05/29 00:56:31;;;;;;;5.10;4.37;;;12.40;51.20;;;;;;5023891;28;39435;-82
2021/05/29 00:58:58;;;;;;;4.97;4.33;;;12.40;51.20;;;;;;5017574;28;38401;-82
2021/05/29 01:01:25;;;;;;;5.10;4.60;;;12.40;51.20;;;;;;5021237;28;37355;-80
2021/05/29 01:03:53;;;;;;;4.77;4.27;;;12.40;51.30;;;;;;5095372;28;40027;-80
2021/05/29 01:06:21;;;;;;;4.33;3.83;;;12.40;51.40;;;;;;5089351;28;38632;-80
2021/05/29 01:08:49;;;;;;;5.10;4.60;;;12.40;51.20;;;;;;5113660;28;38857;-80
2021/05/29 01:11:16;;;;;;;7.13;4.63;;;12.40;51.20;;;;;;5114174;27;36831;-80
2021/05/29 01:13:43;;;;;;;4.80;3.97;;;12.30;51.30;;;;;;5113600;27;39566;-80
2021/05/29 01:16:20;;;;;;;6.20;4.80;;;12.30;51.30;;;;;;5094118;28;38721;-79
2021/05/29 01:18:47;;;;;;;5.00;4.50;;;12.30;51.40;;;;;;5106878;27;38298;-80
2021/05/29 01:21:15;;;;;;;4.43;4.03;;;12.30;51.50;;;;;;5114189;28;38072;-80
2021/05/29 01:23:43;;;;;;;6.27;4.50;;;12.30;51.90;;;;;;5092871;28;39780;-79
2021/05/29 01:26:10;;;;;;;6.30;4.53;;;12.30;51.90;;;;;;5113848;27;39993;-79
2021/05/29 01:28:37;;;;;;;5.67;4.43;;;12.30;51.90;;;;;;5113360;27;38621;-79
2021/05/29 01:31:06;;;;;;;5.30;4.50;;;12.30;51.90;;;;;;5112056;28;36862;-80
2021/05/29 01:33:36;;;;;;;4.73;4.20;;;12.20;51.90;;;;;;5112132;28;39326;-79
2021/05/29 01:36:08;;;;;;;4.93;4.20;;;12.20;52.00;;;;;;5108820;27;39431;-78
2021/05/29 01:38:36;;;;;;;4.60;4.20;;;12.20;51.90;;;;;;5096623;28;38961;-78
2021/05/29 01:41:06;;;;;;;4.40;3.73;;;12.20;51.90;;;;;;5109743;28;37799;-79
2021/05/29 01:43:35;;;;;;;4.30;3.83;;;12.20;51.90;;;;;;5093475;28;39350;-78
2021/05/29 01:46:08;;;;;;;5.97;4.77;;;12.10;52.10;;;;;;5095398;28;37908;-78
2021/05/29 01:48:39;;;;;;;4.80;3.93;;;12.10;52.10;;;;;;5103531;28;38679;-78
2021/05/29 01:51:07;;;;;;;4.53;4.13;;;12.10;52.10;;;;;;5090500;28;36052;-78
2021/05/29 01:53:34;;;;;;;5.00;4.10;;;12.10;52.20;;;;;;5105059;28;39954;-77
2021/05/29 01:56:01;;;;;;;4.87;3.70;;;12.00;52.00;;;;;;5098425;28;39207;-78
2021/05/29 01:58:30;;;;;;;3.93;3.63;;;12.00;52.10;;;;;;5109334;28;38357;-79
2021/05/29 02:00:57;;;;;;;4.03;3.63;;;12.10;52.10;;;;;;5102554;28;36925;-80
2021/05/29 02:03:24;;;;;;;3.67;3.27;;;12.00;52.20;;;;;;5093766;28;39886;-79
2021/05/29 02:05:52;;;;;;;4.10;3.70;;;12.00;52.30;;;;;;5113621;28;39269;-80
2021/05/29 02:08:19;;;;;;;6.37;3.43;;;12.00;52.40;;;;;;5092756;28;37314;-81
2021/05/29 02:10:47;;;;;;;3.97;3.30;;;12.00;52.30;;;;;;5108244;28;37305;-80
2021/05/29 02:13:23;;;;;;;5.90;4.10;;;11.90;52.10;;;;;;5109499;27;39695;-81
2021/05/29 02:15:52;;;;;;;4.57;4.17;;;11.90;51.90;;;;;;5100047;28;39283;-81
2021/05/29 02:18:20;;;;;;;4.50;3.93;;;11.90;51.90;;;;;;5086474;28;38516;-81
2021/05/29 02:20:49;;;;;;;5.40;4.53;;;11.90;52.10;;;;;;5088922;28;36866;-81
2021/05/29 02:23:19;;;;;;;4.67;4.00;;;11.80;52.20;;;;;;5086960;28;39591;-81
2021/05/29 02:25:46;;;;;;;4.73;4.20;;;11.80;52.40;;;;;;5099514;28;39521;-81
2021/05/29 02:28:14;;;;;;;5.73;4.20;;;11.80;52.40;;;;;;5083083;28;38328;-80
2021/05/29 02:30:44;;;;;;;5.30;3.90;;;11.80;52.60;;;;;;5111540;28;36858;-80
2021/05/29 02:33:12;;;;;;;4.73;4.23;;;11.70;52.50;;;;;;5107697;28;40779;-80
2021/05/29 02:35:40;;;;;;;4.33;3.70;;;11.70;52.50;;;;;;5104677;28;40242;-80
2021/05/29 02:38:08;;;;;;;4.67;4.23;;;11.70;52.60;;;;;;5089599;28;37281;-79
2021/05/29 02:40:35;;;;;;;4.30;3.90;;;11.70;52.70;;;;;;5090118;28;35837;-81
2021/05/29 02:43:05;;;;;;;4.60;3.90;;;11.70;52.70;;;;;;5093892;28;38643;-81
2021/05/29 02:45:34;;;;;;;6.57;3.77;;;11.70;52.70;;;;;;5103624;28;39740;-81
2021/05/29 02:48:03;;;;;;;4.87;4.00;;;11.70;52.80;;;;;;5092262;28;37440;-81
2021/05/29 02:50:31;;;;;;;4.30;3.90;;;11.70;52.90;;;;;;5099615;28;37346;-82
2021/05/29 02:53:00;;;;;;;6.13;4.10;;;11.70;53.00;;;;;;5108731;28;40603;-80
2021/05/29 02:55:28;;;;;;;5.10;4.33;;;11.60;53.00;;;;;;5092843;28;38646;-80
2021/05/29 02:57:57;;;;;;;5.93;4.60;;;11.70;53.20;;;;;;5112104;28;38524;-80
2021/05/29 03:00:28;;;;;;;6.57;4.30;;;11.70;53.00;;;;;;5100528;28;37021;-80
2021/05/29 03:02:56;;;;;;;4.63;4.23;;;11.60;53.20;;;;;;5111150;28;40672;-80
2021/05/29 03:05:24;;;;;;;5.43;4.07;;;11.60;53.20;;;;;;5084802;28;37866;-79
2021/05/29 03:07:55;;;;;;;6.00;4.33;;;11.60;53.20;;;;;;5097616;28;37998;-82
2021/05/29 03:10:23;;;;;;;4.87;4.37;;;11.60;53.30;;;;;;5106986;28;37104;-81
2021/05/29 03:12:51;;;;;;;7.30;4.80;;;11.50;53.30;;;;;;5112852;28;40342;-81
2021/05/29 03:15:20;;;;;;;4.50;4.10;;;11.50;53.30;;;;;;5111771;28;39356;-81
2021/05/29 03:17:47;;;;;;;5.10;4.50;;;11.50;53.30;;;;;;5112203;28;38357;-81
2021/05/29 03:20:18;;;;;;;7.20;4.37;;;11.50;53.20;;;;;;5111716;28;37240;-81
2021/05/29 03:22:45;;;;;;;4.80;4.40;;;11.50;53.30;;;;;;5112608;28;40255;-82
2021/05/29 03:25:14;;;;;;;4.63;4.23;;;11.50;53.20;;;;;;5111730;27;39005;-81
2021/05/29 03:27:41;;;;;;;4.93;4.43;;;11.50;53.30;;;;;;5111689;28;38355;-81
2021/05/29 03:30:13;;;;;;;5.33;4.67;;;11.50;53.30;;;;;;5094383;28;35963;-81
2021/05/29 03:32:44;;;;;;;6.90;4.80;;;11.50;53.30;;;;;;5111443;28;40277;-81
2021/05/29 03:35:11;;;;;;;5.00;4.50;;;11.60;53.40;;;;;;5106863;28;39533;-81
2021/05/29 03:37:38;;;;;;;4.37;4.07;;;11.50;53.20;;;;;;5113081;28;38679;-81
2021/05/29 03:40:07;;;;;;;5.00;4.33;;;11.50;53.20;;;;;;5076853;28;35581;-81
2021/05/29 03:42:35;;;;;;;4.43;3.90;;;11.50;53.10;;;;;;5108172;28;40139;-82
2021/05/29 03:45:04;;;;;;;4.20;3.80;;;11.60;53.20;;;;;;5112631;28;40188;-82
2021/05/29 03:47:31;;;;;;;4.67;4.20;;;11.60;53.10;;;;;;5113037;28;39236;-82
2021/05/29 03:49:58;;;;;;;4.47;4.07;;;11.60;53.20;;;;;;5112551;28;37619;-82
2021/05/29 03:52:25;;;;;;;5.30;4.77;;;11.60;53.00;;;;;;5091449;28;39295;-82
2021/05/29 03:54:54;;;;;;;5.47;4.57;;;11.60;53.10;;;;;;5090867;28;37960;-82
2021/05/29 03:57:21;;;;;;;5.03;4.10;;;11.60;52.90;;;;;;5074559;28;38090;-81
2021/05/29 03:59:49;;;;;;;4.43;4.00;;;11.70;53.00;;;;;;5087876;28;36807;-84
2021/05/29 04:02:16;;;;;;;4.20;3.80;;;11.70;53.10;;;;;;5110788;28;40612;-83
2021/05/29 04:04:44;;;;;;;4.50;4.10;;;11.80;53.20;;;;;;5080616;28;38051;-79
2021/05/29 04:07:11;;;;;;;6.07;4.77;;;11.90;52.80;;;;;;5110105;28;38327;-81
2021/05/29 04:09:41;;;;;;;8.57;4.20;;;11.90;52.50;;;;;;5087145;28;36308;-80
2021/05/29 04:12:09;;;;;;;4.70;4.20;;;12.00;52.30;;;;;;5108053;28;39744;-79
2021/05/29 04:14:36;;;;;;;5.63;4.83;;;12.00;52.10;;;;;;5113304;28;39553;-79
2021/05/29 04:17:07;;;;;;;5.57;3.70;;;12.10;52.30;;;;;;5111866;28;38550;-79
2021/05/29 04:19:33;;;;;;;4.50;3.83;;;12.00;52.20;;;;;;5091857;28;36048;-79
2021/05/29 04:22:03;;;;;;;4.37;3.70;;;12.10;52.20;;;;;;5114700;28;39703;-80
2021/05/29 04:24:30;;;;;;;3.77;3.47;;;12.20;51.90;;;;;;5113925;28;40266;-79
2021/05/29 04:26:57;;;;;;;7.13;4.20;;;12.30;51.50;;;;;;5112026;28;38407;-78
2021/05/29 04:29:24;;;;;;;7.10;3.60;;;12.30;51.30;;;;;;5093644;28;35965;-80
2021/05/29 04:31:51;;;;;;;5.17;3.70;;;12.50;51.30;;;;;;5112179;28;40544;-81
2021/05/29 04:34:19;;;;;;;4.93;3.90;;;12.70;51.50;;;;;;5099340;28;39401;-80
2021/05/29 04:36:46;;;;;;;3.33;3.03;;;12.80;51.00;;;;;;5097139;28;39584;-80
2021/05/29 04:39:13;;;;;;;3.70;3.40;;;13.00;50.90;;;;;;5109694;28;37651;-81
2021/05/29 04:41:41;;;;;;;4.40;4.00;;;13.10;50.30;;;;;;5096707;28;40231;-81
2021/05/29 04:44:07;;;;;;;3.90;3.60;;;13.30;50.30;;;;;;5113723;28;39488;-83
2021/05/29 04:46:39;;;;;;;4.50;3.60;;;13.50;49.80;;;;;;5115264;28;37931;-81
2021/05/29 04:49:06;;;;;;;3.90;3.60;;;13.70;49.30;;;;;;5088574;28;35615;-81
2021/05/29 04:51:34;;;;;;;4.50;4.10;;;13.80;48.30;;;;;;5087928;28;38553;-81
2021/05/29 04:54:01;;;;;;;4.60;4.20;;;13.90;48.20;;;;;;5115166;28;39186;-81
2021/05/29 04:56:31;;;;;;;5.70;4.03;;;14.10;48.40;;;;;;5111472;28;39801;-81
2021/05/29 04:58:58;;;;;;;3.97;3.60;;;14.30;47.80;;;;;;5115099;28;36757;-80
2021/05/29 05:01:29;;;;;;;4.57;3.40;;;14.50;47.00;;;;;;5114296;28;39842;-79
2021/05/29 05:03:56;;;;;;;5.10;3.50;;;14.60;46.80;;;;;;5114834;28;40017;-80
2021/05/29 05:06:23;;;;;;;4.30;3.67;;;14.70;46.50;;;;;;5118300;28;39377;-82
2021/05/29 05:08:51;;;;;;;3.50;3.10;;;14.90;45.80;;;;;;5094343;28;37579;-80
2021/05/29 05:11:19;;;;;;;3.70;3.40;;;15.00;45.00;;;;;;5112030;28;39738;-80
2021/05/29 05:13:46;;;;;;;4.20;3.17;;;15.10;44.90;;;;;;5090746;28;38712;-80
2021/05/29 05:16:16;;;;;;;5.87;3.40;;;15.40;45.10;;;;;;5110827;28;38645;-80
2021/05/29 05:18:44;;;;;;;3.70;3.40;;;15.60;44.30;;;;;;5114875;28;37370;-79
2021/05/29 05:21:13;;;;;;;4.10;3.37;;;16.00;43.70;;;;;;5114844;28;39611;-81
2021/05/29 05:23:40;;;;;;;3.53;3.23;;;16.20;43.20;;;;;;5094117;28;37875;-80
2021/05/29 05:26:08;;;;;;;3.30;2.87;;;16.60;42.80;;;;;;5113298;28;37571;-80
2021/05/29 05:28:35;;;;;;;10.00;3.27;;;16.90;41.70;;;;;;5110233;28;37627;-81
2021/05/29 05:31:05;;;;;;;2.83;2.47;;;17.20;41.40;;;;;;5113094;28;39536;-82
2021/05/29 05:33:37;;;;;;;6.17;2.87;;;17.60;40.40;;;;;;5095137;28;37700;-81
2021/05/29 05:36:07;;;;;;;3.13;2.80;;;18.10;39.60;;;;;;5115789;28;38309;-83
2021/05/29 05:38:34;;;;;;;3.00;2.50;;;18.70;38.30;;;;;;5112933;28;36503;-81
2021/05/29 05:41:01;;;;;;;4.90;2.73;;;19.60;37.10;;;;;;5096303;28;40186;-80
2021/05/29 05:43:29;;;;;;;4.37;2.30;;;20.90;36.10;;;;;;5111345;28;39287;-82
2021/05/29 05:45:56;;;;;;;4.93;2.30;;;22.20;32.80;;;;;;5111037;28;38118;-81
2021/05/29 05:48:23;;;;;;;2.00;1.80;;;23.70;31.60;;;;;;5112765;27;37395;-82
2021/05/29 05:50:55;;;;;;;3.13;2.03;;;24.40;28.60;;;;;;5113618;28;39747;-83
2021/05/29 05:53:23;;;;;;;2.37;2.17;;;24.80;28.70;;;;;;5108224;28;40344;-83
2021/05/29 05:55:54;;;;;;;2.63;2.03;;;25.30;28.20;;;;;;5087067;27;37996;-83
2021/05/29 05:58:21;;;;;;;3.00;2.20;;;27.10;27.30;;;;;;5113513;28;37304;-83
2021/05/29 06:00:49;;;;;;;2.20;1.87;;;28.50;24.80;;;;;;5109673;28;39711;-84
2021/05/29 06:03:16;;;;;;;2.47;1.87;;;30.60;23.50;;;;;;5090901;28;37837;-83
2021/05/29 06:05:44;;;;;;;2.07;1.87;;;32.40;21.80;;;;;;5111892;28;38333;-84
2021/05/29 06:08:11;;;;;;;2.97;2.03;;;34.00;19.40;;;;;;5114384;28;38032;-82
2021/05/29 06:10:38;;;;;;;3.00;1.60;;;35.40;18.90;;;;;;5111975;28;39908;-83
2021/05/29 06:13:07;;;;;;;1.80;1.43;;;36.80;17.30;;;;;;5114572;28;39718;-83
2021/05/29 06:21:02;;;;;;;1.53;1.43;;;37.40;16.20;;;;;;5081492;27;38606;-84
2021/05/29 06:23:29;;;;;;;2.70;1.53;;;37.80;15.40;;;;;;5088095;28;37691;-83
2021/05/29 06:25:56;;;;;;;1.70;1.50;;;38.50;15.60;;;;;;5095560;28;37065;-84
2021/05/29 06:28:23;;;;;;;2.90;1.80;;;38.90;14.70;;;;;;5094272;28;35953;-84
2021/05/29 06:30:50;;;;;;;1.67;1.57;;;37.80;14.50;;;;;;5112217;27;39824;-83
2021/05/29 06:33:17;;;;;;;1.97;1.50;;;35.80;14.70;;;;;;5112710;28;40142;-84
2021/05/29 06:35:45;;;;;;;2.50;1.77;;;34.20;16.10;;;;;;5084889;27;37255;-84
2021/05/29 06:38:12;;;;;;;2.00;1.43;;;34.20;15.90;;;;;;5113358;28;37434;-85
2021/05/29 06:40:39;;;;;;;2.40;1.57;;;34.10;16.10;;;;;;5094603;28;39298;-81
2021/05/29 06:43:06;;;;;;;2.93;1.80;;;34.10;15.60;;;;;;5105063;28;39550;-82
2021/05/29 06:45:33;;;;;;;2.00;1.50;;;34.70;15.70;;;;;;5093760;27;37317;-81
2021/05/29 06:48:00;;;;;;;1.30;1.20;;;34.90;14.90;;;;;;5095478;28;36533;-82
2021/05/29 06:50:27;;;;;;;4.43;1.30;;;34.70;14.90;;;;;;5114800;27;39762;-83
2021/05/29 06:52:56;;;;;;;2.87;1.70;;;35.70;14.30;;;;;;5112878;27;39250;-84
2021/05/29 07:00:56;;;;;;;5.00;1.63;;;37.50;13.00;;;;;;5100010;28;39885;-83
2021/05/29 07:03:23;;;;;;;2.10;1.63;;;37.80;12.60;;;;;;5108321;28;37924;-83
2021/05/29 07:05:50;;;;;;;1.23;1.10;;;38.20;12.60;;;;;;5118876;27;39449;-85
2021/05/29 07:08:18;;;;;;;2.33;1.60;;;38.50;12.20;;;;;;5112724;28;37938;-82
2021/05/29 07:10:47;;;;;;;2.50;1.53;;;38.40;12.00;;;;;;5105666;27;40313;-84
2021/05/29 07:13:17;;;;;;;4.80;1.60;;;38.30;12.20;;;;;;5111721;28;40355;-85
2021/05/29 07:15:44;;;;;;;2.17;1.87;;;38.30;12.30;;;;;;5093822;27;37267;-83
2021/05/29 07:18:12;;;;;;;1.50;1.40;;;38.80;12.00;;;;;;5093286;28;36306;-82
2021/05/29 07:20:39;;;;;;;3.03;1.60;;;38.30;11.80;;;;;;5109855;28;39891;-82
2021/05/29 07:23:07;;;;;;;1.37;1.23;;;37.90;11.70;;;;;;5110103;27;40397;-83
2021/05/29 07:25:36;;;;;;;4.20;1.73;;;37.80;12.20;;;;;;5113510;27;38904;-86
2021/05/29 07:28:06;;;;;;;1.30;1.13;;;38.80;11.70;;;;;;5092293;28;36021;-85
2021/05/29 07:30:41;;;;;;;1.50;1.23;;;39.80;11.40;;;;;;5103747;28;40711;-84
2021/05/29 07:33:09;;;;;;;2.00;1.80;;;41.00;10.50;;;;;;5092644;28;39847;-84
2021/05/29 07:35:36;;;;;;;1.60;1.40;;;40.60;10.40;;;;;;5087527;28;37985;-82
2021/05/29 07:38:16;;;;;;;5.87;1.83;;;40.80;9.80;;;;;;5106765;28;35985;-86
2021/05/29 07:40:46;;;;;;;2.33;1.40;;;41.10;9.90;;;;;;5101138;28;40578;-82
2021/05/29 07:43:13;;;;;;;1.77;1.40;;;41.60;9.20;;;;;;5089522;28;37825;-85
2021/05/29 07:45:40;;;;;;;3.60;1.70;;;41.20;9.10;;;;;;5104723;28;37477;-84
2021/05/29 07:48:08;;;;;;;2.70;1.33;;;40.10;10.30;;;;;;5092220;28;35907;-85
2021/05/29 07:50:56;;;;;;;2.03;1.57;;;40.50;9.20;;;;;;5093822;28;38483;-87
2021/05/29 07:53:23;;;;;;;1.53;1.20;;;40.20;9.00;;;;;;5111199;28;39675;-78
2021/05/29 07:55:51;;;;;;;2.27;1.50;;;39.90;9.10;;;;;;5083579;28;37284;-79
2021/05/29 07:58:18;;;;;;;3.10;1.30;;;37.40;9.90;;;;;;5107146;28;37049;-81
2021/05/29 08:00:49;;;;;;;2.07;1.60;;;35.80;10.90;;;;;;5096987;28;37466;-81
2021/05/29 08:03:17;;;;;;;1.40;1.30;;;33.80;12.30;;;;;;5102886;28;40167;-82
2021/05/29 08:05:44;;;;;;;2.40;1.40;;;33.10;12.30;;;;;;5085719;28;37476;-81
2021/05/29 08:08:11;;;;;;;1.77;1.40;;;32.60;13.40;;;;;;5085582;28;36512;-78
2021/05/29 08:10:38;;;;;;;1.50;1.37;;;32.30;12.80;;;;;;5080926;28;39658;-78
2021/05/29 08:13:06;;;;;;;2.27;1.50;;;31.80;13.30;;;;;;5088837;28;38060;-78
2021/05/29 08:15:35;;;;;;;1.30;1.20;;;30.90;12.90;;;;;;5107051;28;38731;-78
2021/05/29 08:18:02;;;;;;;2.47;1.50;;;30.60;13.50;;;;;;5087988;28;36759;-78
2021/05/29 08:20:30;;;;;;;3.10;1.57;;;31.10;13.80;;;;;;5106448;28;39938;-78
2021/05/29 08:22:57;;;;;;;42.33;9.20;;;28.90;15.10;;;;;;5089023;28;38221;-76
2021/05/29 08:25:24;;;;;;;7.27;2.63;;;28.30;16.90;;;;;;5079541;28;37361;-78
2021/05/29 08:27:51;;;;;;;1.40;1.30;;;29.40;15.80;;;;;;5106378;28;37420;-79
2021/05/29 08:30:19;;;;;;;2.20;1.50;;;29.40;14.90;;;;;;5088724;28;38518;-79
2021/05/29 08:32:46;;;;;;;1.77;1.30;;;28.60;16.10;;;;;;5104420;28;39840;-79
2021/05/29 08:35:13;;;;;;;2.33;1.43;;;26.40;17.30;;;;;;5086974;28;37096;-78
2021/05/29 08:37:44;;;;;;;1.83;1.43;;;25.70;18.40;;;;;;5102216;28;37826;-78
2021/05/29 08:40:13;;;;;;;3.10;1.97;;;25.10;18.90;;;;;;5100707;28;40557;-79
2021/05/29 08:42:44;;;;;;;2.80;1.53;;;25.60;19.30;;;;;;5099229;28;38956;-79
2021/05/29 08:45:12;;;;;;;1.63;1.50;;;26.20;18.30;;;;;;5084769;28;38225;-79
2021/05/29 08:47:40;;;;;;;3.47;1.10;;;26.10;16.80;;;;;;5108035;28;37399;-79
2021/05/29 08:50:11;;;;;;;1.30;1.17;;;27.00;16.10;;;;;;5105951;28;39819;-80
2021/05/29 08:52:39;;;;;;;1.70;1.00;;;27.10;16.00;;;;;;5099552;28;39158;-80
2021/05/29 08:55:11;;;;;;;1.40;1.00;;;27.80;15.40;;;;;;5099432;28;39511;-79
2021/05/29 08:57:39;;;;;;;1.50;1.10;;;26.80;15.10;;;;;;5077433;28;35838;-80
2021/05/29 09:00:09;;;;;;;1.73;1.40;;;26.10;15.70;;;;;;5106955;28;39953;-79
2021/05/29 09:02:58;;;;;;;2.00;1.20;;;24.10;17.20;;;;;;5106019;28;39535;-79
2021/05/29 09:05:48;;;;;;;3.87;1.30;;;23.40;18.40;;;;;;5104407;28;38392;-77
2021/05/29 09:08:15;;;;;;;2.70;1.53;;;24.30;18.10;;;;;;5099982;28;37161;-78
2021/05/29 09:10:46;;;;;;;2.03;1.13;;;26.10;17.40;;;;;;5085021;28;39748;-78
2021/05/29 09:13:14;;;;;;;1.87;1.37;;;28.10;15.70;;;;;;5100382;28;39135;-80
2021/05/29 09:15:53;;;;;;;2.13;1.20;;;29.50;14.70;;;;;;5105790;27;38535;-81
2021/05/29 09:18:34;;;;;;;1.30;0.97;;;30.50;14.20;;;;;;5087666;28;36384;-81
2021/05/29 09:21:29;;;;;;;1.33;1.00;;;32.40;13.10;;;;;;5108307;28;38308;-83
2021/05/29 09:24:01;;;;;;;1.90;1.80;;;33.80;11.70;;;;;;5082718;28;37987;-83
2021/05/29 09:26:44;;;;;;;1.30;1.20;;;34.60;11.00;;;;;;5112808;28;39179;-81
2021/05/29 09:29:21;;;;;;;2.17;1.20;;;34.70;10.30;;;;;;5093130;28;37180;-81
2021/05/29 09:31:53;;;;;;;2.70;1.60;;;34.20;11.10;;;;;;5099825;28;39902;-82
2021/05/29 09:34:40;;;;;;;1.87;1.20;;;35.10;11.30;;;;;;5100134;28;37920;-82
2021/05/29 09:37:10;;;;;;;1.90;1.10;;;35.10;11.20;;;;;;5119638;28;39160;-82
2021/05/29 09:39:39;;;;;;;1.80;1.50;;;34.40;12.00;;;;;;5108695;28;37821;-82
2021/05/29 09:42:08;;;;;;;2.07;1.37;;;33.80;11.30;;;;;;5095591;28;38941;-83
2021/05/29 09:44:37;;;;;;;2.10;0.97;;;32.60;12.30;;;;;;5125963;28;39071;-82
2021/05/29 09:47:08;;;;;;;1.30;1.10;;;32.80;11.90;;;;;;5114848;28;39167;-82
2021/05/29 09:50:00;;;;;;;1.90;1.30;;;32.20;12.00;;;;;;5112802;28;37101;-83
2021/05/29 09:52:33;;;;;;;2.80;1.10;;;31.40;12.50;;;;;;5072005;28;38852;-84
2021/05/29 09:55:05;;;;;;;1.67;1.10;;;33.30;13.00;;;;;;5117825;28;38658;-83
2021/05/29 09:57:48;;;;;;;1.50;1.40;;;36.50;11.80;;;;;;5101527;28;38640;-83
2021/05/29 10:00:20;;;;;;;1.83;1.40;;;39.20;9.70;;;;;;5109352;28;37347;-85
2021/05/29 10:03:07;;;;;;;3.10;1.40;;;40.90;8.50;;;;;;5087481;28;39487;-82
2021/05/29 10:05:36;;;;;;;1.13;1.03;;;40.10;7.90;;;;;;5104593;28;38620;-82
2021/05/29 10:08:13;;;;;;;1.00;0.90;;;38.80;8.40;;;;;;5101283;28;37519;-82
2021/05/29 10:11:10;;;;;;;1.43;1.20;;;38.30;8.70;;;;;;5105850;28;36414;-82
2021/05/29 10:13:49;;;;;;;1.80;1.00;;;39.00;8.70;;;;;;5106370;28;39843;-84
2021/05/29 10:16:18;;;;;;;1.80;1.10;;;38.80;8.70;;;;;;5104722;28;39306;-84
2021/05/29 10:18:49;;;;;;;3.70;1.23;;;37.40;9.20;;;;;;5085675;28;38531;-84
2021/05/29 10:21:19;;;;;;;9.63;1.40;;;34.60;10.00;;;;;;5086996;27;36591;-83
2021/05/29 10:23:49;;;;;;;1.40;1.20;;;31.80;11.30;;;;;;5108604;28;39183;-82
2021/05/29 10:26:17;;;;;;;2.97;1.23;;;30.30;13.00;;;;;;5094946;28;38551;-83
2021/05/29 10:28:46;;;;;;;1.67;1.27;;;29.20;12.90;;;;;;5092809;28;37212;-82
2021/05/29 10:31:14;;;;;;;1.30;1.20;;;28.40;14.10;;;;;;5112153;27;37760;-82
2021/05/29 10:33:45;;;;;;;10.07;1.27;;;28.00;14.10;;;;;;5097528;28;40537;-83
2021/05/29 10:36:40;;;;;;;3.57;1.20;;;27.90;14.40;;;;;;5116560;28;39889;-84
2021/05/29 10:39:09;;;;;;;1.00;0.90;;;29.10;14.00;;;;;;5084171;28;37119;-82
2021/05/29 10:42:00;;;;;;;4.33;1.73;;;30.40;13.30;;;;;;5097522;28;37764;-84
2021/05/29 10:44:39;;;;;;;1.60;1.20;;;32.40;13.00;;;;;;5093456;28;39393;-83
2021/05/29 10:47:12;;;;;;;2.63;1.10;;;34.30;11.40;;;;;;5118902;28;39015;-83
2021/05/29 10:49:56;;;;;;;2.87;1.77;;;34.40;10.70;;;;;;5110399;27;38562;-84
2021/05/29 10:52:54;;;;;;;1.03;0.90;;;34.60;10.40;;;;;;5084490;27;35537;-83
2021/05/29 10:55:26;;;;;;;1.60;1.00;;;33.60;10.30;;;;;;5040849;28;39496;-83
2021/05/29 10:57:56;;;;;;;1.80;0.90;;;31.70;11.20;;;;;;5094301;28;38900;-84
2021/05/29 11:00:51;;;;;;;4.70;1.17;;;30.30;11.70;;;;;;5112166;27;38897;-82
2021/05/29 11:03:24;;;;;;;3.23;1.07;;;28.90;12.60;;;;;;5093520;28;36472;-83
2021/05/29 11:05:56;;;;;;;1.20;1.00;;;28.10;13.50;;;;;;5107551;28;40914;-83
2021/05/29 11:08:47;;;;;;;2.03;1.07;;;26.80;14.20;;;;;;5102646;27;38742;-81
2021/05/29 11:11:52;;;;;;;1.73;1.10;;;26.20;14.90;;;;;;5098711;28;38244;-81
2021/05/29 11:14:21;;;;;;;3.30;1.10;;;26.30;15.80;;;;;;5083113;28;35905;-81
2021/05/29 11:17:08;;;;;;;1.40;0.90;;;27.60;14.60;;;;;;5082915;28;38597;-81
2021/05/29 11:19:39;;;;;;;1.50;1.10;;;29.00;14.40;;;;;;5093098;28;36365;-81
2021/05/29 11:22:08;;;;;;;2.07;0.90;;;28.60;12.90;;;;;;5107083;28;39211;-81
2021/05/29 11:24:39;;;;;;;1.20;1.10;;;27.50;12.80;;;;;;5109184;28;38265;-81
2021/05/29 11:27:15;;;;;;;1.70;1.10;;;26.70;14.00;;;;;;5090051;28;38065;-81
2021/05/29 11:29:53;;;;;;;1.30;0.90;;;26.20;14.20;;;;;;5108392;28;39010;-83
2021/05/29 11:32:42;;;;;;;1.40;1.23;;;26.60;15.90;;;;;;5103237;28;38105;-83
2021/05/29 11:35:26;;;;;;;4.00;1.30;;;27.10;16.20;;;;;;5110458;27;38433;-82
2021/05/29 11:38:14;;;;;;;1.93;0.80;;;27.10;15.90;;;;;;5108659;28;39616;-81
2021/05/29 11:40:50;;;;;;;1.93;0.90;;;26.50;15.90;;;;;;5110170;28;39936;-82
2021/05/29 11:43:33;;;;;;;1.20;1.00;;;26.00;15.60;;;;;;5112637;28;20567;-82
2021/05/29 11:46:02;;;;;;;2.13;1.07;;;25.30;16.00;;;;;;5104267;27;36980;-84
2021/05/29 11:48:32;;;;;;;8.50;1.47;;;24.70;17.00;;;;;;5110335;27;40129;-84
2021/05/29 11:51:09;;;;;;;1.43;1.10;;;24.50;17.90;;;;;;5110024;28;38685;-83
2021/05/29 11:53:38;;;;;;;2.13;1.20;;;24.70;17.60;;;;;;5104306;28;38751;-84
2021/05/29 11:56:06;;;;;;;4.10;1.20;;;25.00;17.40;;;;;;5107846;27;37916;-82
2021/05/29 11:58:47;;;;;;;2.50;1.00;;;25.20;17.20;;;;;;5108743;27;40605;-84
2021/05/29 12:01:16;;;;;;;2.13;1.03;;;25.50;17.60;;;;;;5105683;28;39153;-82
2021/05/29 12:03:46;;;;;;;1.40;1.13;;;25.10;17.20;;;;;;5092146;27;37467;-82
2021/05/29 12:06:29;;;;;;;1.20;0.83;;;24.70;17.00;;;;;;5105876;28;36704;-81
2021/05/29 12:09:00;;;;;;;1.07;0.83;;;24.30;16.90;;;;;;5088961;28;41087;-83
2021/05/29 12:11:30;;;;;;;1.97;1.30;;;24.20;17.90;;;;;;5099772;27;39554;-83
2021/05/29 12:13:59;;;;;;;1.50;1.20;;;23.90;17.80;;;;;;5109256;28;38597;-82
2021/05/29 12:16:28;;;;;;;1.20;0.80;;;23.60;17.60;;;;;;5109025;27;36946;-83
2021/05/29 12:18:55;;;;;;;1.53;1.37;;;23.00;17.20;;;;;;5087478;28;40304;-83
2021/05/29 12:21:23;;;;;;;1.07;0.90;;;22.90;17.00;;;;;;5107574;28;38611;-83
2021/05/29 12:23:52;;;;;;;2.13;1.03;;;23.10;18.80;;;;;;5110140;28;38232;-83
2021/05/29 12:26:20;;;;;;;1.20;0.73;;;23.50;17.60;;;;;;5108691;27;38056;-83
2021/05/29 12:28:48;;;;;;;1.93;1.00;;;24.00;17.20;;;;;;5093376;28;39391;-83
2021/05/29 12:31:22;;;;;;;1.20;0.73;;;24.60;18.60;;;;;;5110273;28;39895;-81
2021/05/29 12:34:03;;;;;;;3.33;1.27;;;24.70;17.90;;;;;;5108099;28;38327;-81
2021/05/29 12:36:32;;;;;;;1.83;1.07;;;24.70;17.60;;;;;;5092143;28;37983;-81
2021/05/29 12:39:00;;;;;;;1.90;1.17;;;24.60;17.30;;;;;;5105819;28;39651;-82
2021/05/29 12:41:36;;;;;;;1.10;0.90;;;24.30;18.10;;;;;;5109642;27;39391;-83
2021/05/29 12:44:09;;;;;;;1.00;0.70;;;24.20;17.90;;;;;;5093686;28;38866;-83
2021/05/29 12:46:37;;;;;;;1.70;0.80;;;24.20;17.60;;;;;;5092911;28;37256;-83
2021/05/29 12:49:08;;;;;;;1.43;0.80;;;23.90;17.70;;;;;;5110651;28;40391;-83
2021/05/29 12:51:43;;;;;;;1.40;0.80;;;24.10;18.00;;;;;;5109269;27;39807;-83
2021/05/29 12:54:12;;;;;;;1.00;0.90;;;24.50;16.90;;;;;;5109666;28;36961;-83
2021/05/29 12:56:50;;;;;;;1.67;1.00;;;24.50;16.80;;;;;;5104990;28;37109;-83
2021/05/29 12:59:23;;;;;;;2.20;0.80;;;24.10;18.40;;;;;;5111585;27;38321;-82
2021/05/29 13:07:32;;;;;;;1.20;0.90;;;23.30;19.90;;;;;;5111557;27;36926;-82
2021/05/29 13:10:04;;;;;;;1.50;0.93;;;23.50;20.00;;;;;;5105360;27;39589;-83
2021/05/29 13:12:35;;;;;;;1.87;1.00;;;23.80;19.70;;;;;;5096945;28;38226;-83
2021/05/29 13:15:14;;;;;;;2.23;0.90;;;23.60;19.00;;;;;;5114117;28;38047;-82
2021/05/29 13:17:41;;;;;;;2.07;0.90;;;23.10;19.30;;;;;;5097993;27;37463;-83
2021/05/29 13:20:16;;;;;;;0.80;0.80;;;22.90;20.10;;;;;;5113660;28;38469;-83
2021/05/29 13:22:43;;;;;;;1.50;0.97;;;22.80;19.20;;;;;;5111121;28;38878;-80
2021/05/29 13:25:13;;;;;;;1.40;0.70;;;22.90;18.70;;;;;;5114600;27;38425;-81
2021/05/29 13:27:44;;;;;;;1.00;0.80;;;23.10;18.80;;;;;;5096693;27;36501;-81
2021/05/29 13:30:16;;;;;;;1.40;0.90;;;23.00;18.50;;;;;;5098875;28;39869;-84
2021/05/29 13:32:45;;;;;;;1.63;1.30;;;23.00;18.80;;;;;;5096697;28;38031;-82
2021/05/29 13:35:14;;;;;;;1.93;1.50;;;23.00;20.20;;;;;;5114537;27;39454;-82
2021/05/29 13:37:41;;;;;;;1.47;1.20;;;22.90;18.70;;;;;;5107652;27;36794;-82